sensor_id;sensor_type;location;lat;lon;timestamp;P1;durP1;ratioP1;P2;durP2;ratioP2
7406;SDS011;3745;56.964;24.128;2023-04-30T00:00:00;15.60;;;7.57;;
7406;SDS011;3745;56.964;24.128;2023-04-30T00:02:26;11.25;;;8.35;;
7406;SDS011;3745;56.964;24.128;2023-04-30T00:04:52;11.45;;;7.97;;
7406;SDS011;3745;56.964;24.128;2023-04-30T00:07:17;13.57;;;8.27;;
7406;SDS011;3745;56.964;24.128;2023-04-30T00:09:43;8.80;;;7.80;;
7406;SDS011;3745;56.964;24.128;2023-04-30T00:12:09;16.70;;;8.63;;
7406;SDS011;3745;56.964;24.128;2023-04-30T00:14:34;11.00;;;8.45;;
7406;SDS011;3745;56.964;24.128;2023-04-30T00:17:00;11.15;;;8.15;;
7406;SDS011;3745;56.964;24.128;2023-04-30T00:19:26;10.40;;;8.27;;
7406;SDS011;3745;56.964;24.128;2023-04-30T00:21:51;11.00;;;8.60;;
7406;SDS011;3745;56.964;24.128;2023-04-30T00:24:17;13.10;;;9.65;;
7406;SDS011;3745;56.964;24.128;2023-04-30T00:26:43;13.90;;;9.70;;
7406;SDS011;3745;56.964;24.128;2023-04-30T00:29:09;15.82;;;9.48;;
7406;SDS011;3745;56.964;24.128;2023-04-30T00:31:35;15.15;;;10.43;;
7406;SDS011;3745;56.964;24.128;2023-04-30T00:34:03;16.63;;;10.27;;
7406;SDS011;3745;56.964;24.128;2023-04-30T00:36:29;15.25;;;9.82;;
7406;SDS011;3745;56.964;24.128;2023-04-30T00:38:56;13.75;;;10.35;;
7406;SDS011;3745;56.964;24.128;2023-04-30T00:41:21;16.77;;;10.38;;
7406;SDS011;3745;56.964;24.128;2023-04-30T00:43:47;16.50;;;11.48;;
7406;SDS011;3745;56.964;24.128;2023-04-30T00:46:13;19.10;;;11.60;;
7406;SDS011;3745;56.964;24.128;2023-04-30T00:48:38;16.48;;;10.98;;
7406;SDS011;3745;56.964;24.128;2023-04-30T00:51:04;21.63;;;11.68;;
7406;SDS011;3745;56.964;24.128;2023-04-30T00:53:30;16.88;;;11.10;;
7406;SDS011;3745;56.964;24.128;2023-04-30T00:55:59;16.20;;;11.73;;
7406;SDS011;3745;56.964;24.128;2023-04-30T00:58:25;18.63;;;11.25;;
7406;SDS011;3745;56.964;24.128;2023-04-30T01:00:50;17.27;;;12.65;;
7406;SDS011;3745;56.964;24.128;2023-04-30T01:03:16;16.20;;;12.35;;
7406;SDS011;3745;56.964;24.128;2023-04-30T01:05:42;19.30;;;11.95;;
7406;SDS011;3745;56.964;24.128;2023-04-30T01:08:08;18.52;;;12.05;;
7406;SDS011;3745;56.964;24.128;2023-04-30T01:10:40;19.45;;;12.85;;
7406;SDS011;3745;56.964;24.128;2023-04-30T01:15:57;15.73;;;12.57;;
7406;SDS011;3745;56.964;24.128;2023-04-30T01:18:27;21.77;;;13.40;;
7406;SDS011;3745;56.964;24.128;2023-04-30T01:21:00;19.38;;;13.88;;
7406;SDS011;3745;56.964;24.128;2023-04-30T01:26:09;25.20;;;14.35;;
7406;SDS011;3745;56.964;24.128;2023-04-30T01:28:39;20.98;;;14.45;;
7406;SDS011;3745;56.964;24.128;2023-04-30T01:31:11;22.70;;;14.90;;
7406;SDS011;3745;56.964;24.128;2023-04-30T01:33:38;20.50;;;14.30;;
7406;SDS011;3745;56.964;24.128;2023-04-30T01:39:02;18.13;;;13.90;;
7406;SDS011;3745;56.964;24.128;2023-04-30T01:47:34;16.40;;;12.25;;
7406;SDS011;3745;56.964;24.128;2023-04-30T01:50:30;16.63;;;10.63;;
7406;SDS011;3745;56.964;24.128;2023-04-30T01:53:06;12.55;;;10.02;;
7406;SDS011;3745;56.964;24.128;2023-04-30T01:55:35;13.57;;;9.43;;
7406;SDS011;3745;56.964;24.128;2023-04-30T01:58:09;15.98;;;9.43;;
7406;SDS011;3745;56.964;24.128;2023-04-30T02:00:37;11.85;;;9.60;;
7406;SDS011;3745;56.964;24.128;2023-04-30T02:03:02;13.23;;;9.98;;
7406;SDS011;3745;56.964;24.128;2023-04-30T02:05:28;13.02;;;9.65;;
7406;SDS011;3745;56.964;24.128;2023-04-30T02:07:54;12.82;;;9.70;;
7406;SDS011;3745;56.964;24.128;2023-04-30T02:10:21;16.38;;;10.73;;
7406;SDS011;3745;56.964;24.128;2023-04-30T02:12:48;15.32;;;10.50;;
7406;SDS011;3745;56.964;24.128;2023-04-30T02:15:14;13.90;;;11.40;;
7406;SDS011;3745;56.964;24.128;2023-04-30T02:17:40;14.27;;;10.65;;
7406;SDS011;3745;56.964;24.128;2023-04-30T02:20:06;18.98;;;11.80;;
7406;SDS011;3745;56.964;24.128;2023-04-30T02:22:32;18.65;;;10.82;;
7406;SDS011;3745;56.964;24.128;2023-04-30T02:24:58;19.58;;;11.88;;
7406;SDS011;3745;56.964;24.128;2023-04-30T02:27:24;15.52;;;10.38;;
7406;SDS011;3745;56.964;24.128;2023-04-30T02:29:50;18.65;;;11.30;;
7406;SDS011;3745;56.964;24.128;2023-04-30T02:32:16;20.75;;;11.43;;
7406;SDS011;3745;56.964;24.128;2023-04-30T02:34:42;17.35;;;10.82;;
7406;SDS011;3745;56.964;24.128;2023-04-30T02:37:08;16.83;;;11.55;;
7406;SDS011;3745;56.964;24.128;2023-04-30T02:39:34;18.23;;;11.38;;
7406;SDS011;3745;56.964;24.128;2023-04-30T02:41:59;18.45;;;11.25;;
7406;SDS011;3745;56.964;24.128;2023-04-30T02:44:25;18.52;;;10.60;;
7406;SDS011;3745;56.964;24.128;2023-04-30T02:46:51;17.58;;;11.23;;
7406;SDS011;3745;56.964;24.128;2023-04-30T02:49:16;18.55;;;10.93;;
7406;SDS011;3745;56.964;24.128;2023-04-30T02:51:42;17.15;;;11.27;;
7406;SDS011;3745;56.964;24.128;2023-04-30T02:54:08;16.17;;;11.25;;
7406;SDS011;3745;56.964;24.128;2023-04-30T02:56:33;19.65;;;11.73;;
7406;SDS011;3745;56.964;24.128;2023-04-30T02:58:59;17.70;;;11.35;;
7406;SDS011;3745;56.964;24.128;2023-04-30T03:01:25;16.20;;;10.93;;
7406;SDS011;3745;56.964;24.128;2023-04-30T03:03:51;15.55;;;11.15;;
7406;SDS011;3745;56.964;24.128;2023-04-30T03:06:17;20.67;;;11.63;;
7406;SDS011;3745;56.964;24.128;2023-04-30T03:08:43;20.00;;;11.55;;
7406;SDS011;3745;56.964;24.128;2023-04-30T03:11:08;15.27;;;11.25;;
7406;SDS011;3745;56.964;24.128;2023-04-30T03:13:34;20.92;;;12.50;;
7406;SDS011;3745;56.964;24.128;2023-04-30T03:16:00;17.10;;;11.15;;
7406;SDS011;3745;56.964;24.128;2023-04-30T03:18:28;17.95;;;12.07;;
7406;SDS011;3745;56.964;24.128;2023-04-30T03:20:55;16.70;;;11.05;;
7406;SDS011;3745;56.964;24.128;2023-04-30T03:23:21;19.33;;;12.68;;
7406;SDS011;3745;56.964;24.128;2023-04-30T03:25:47;18.77;;;11.23;;
7406;SDS011;3745;56.964;24.128;2023-04-30T03:28:12;20.50;;;11.88;;
7406;SDS011;3745;56.964;24.128;2023-04-30T03:30:38;17.90;;;12.00;;
7406;SDS011;3745;56.964;24.128;2023-04-30T03:33:03;17.25;;;11.52;;
7406;SDS011;3745;56.964;24.128;2023-04-30T03:35:31;20.17;;;12.05;;
7406;SDS011;3745;56.964;24.128;2023-04-30T03:37:58;22.17;;;13.13;;
7406;SDS011;3745;56.964;24.128;2023-04-30T03:40:24;20.42;;;12.63;;
7406;SDS011;3745;56.964;24.128;2023-04-30T03:42:50;19.27;;;12.82;;
7406;SDS011;3745;56.964;24.128;2023-04-30T03:45:15;21.85;;;12.40;;
7406;SDS011;3745;56.964;24.128;2023-04-30T03:47:41;22.50;;;12.13;;
7406;SDS011;3745;56.964;24.128;2023-04-30T03:50:08;19.42;;;12.77;;
7406;SDS011;3745;56.964;24.128;2023-04-30T03:52:34;18.60;;;12.38;;
7406;SDS011;3745;56.964;24.128;2023-04-30T03:55:01;18.98;;;11.88;;
7406;SDS011;3745;56.964;24.128;2023-04-30T03:57:27;16.15;;;11.73;;
7406;SDS011;3745;56.964;24.128;2023-04-30T03:59:53;22.75;;;12.10;;
7406;SDS011;3745;56.964;24.128;2023-04-30T04:02:19;17.77;;;11.13;;
7406;SDS011;3745;56.964;24.128;2023-04-30T04:04:46;14.98;;;10.95;;
7406;SDS011;3745;56.964;24.128;2023-04-30T04:07:12;16.70;;;10.32;;
7406;SDS011;3745;56.964;24.128;2023-04-30T04:09:37;17.05;;;10.52;;
7406;SDS011;3745;56.964;24.128;2023-04-30T04:12:03;16.88;;;10.50;;
7406;SDS011;3745;56.964;24.128;2023-04-30T04:14:29;16.05;;;11.05;;
7406;SDS011;3745;56.964;24.128;2023-04-30T04:16:55;15.15;;;10.32;;
7406;SDS011;3745;56.964;24.128;2023-04-30T04:19:22;17.38;;;9.35;;
7406;SDS011;3745;56.964;24.128;2023-04-30T04:21:48;20.42;;;10.43;;
7406;SDS011;3745;56.964;24.128;2023-04-30T04:24:13;17.77;;;10.30;;
7406;SDS011;3745;56.964;24.128;2023-04-30T04:26:39;13.20;;;9.77;;
7406;SDS011;3745;56.964;24.128;2023-04-30T04:29:05;16.25;;;10.32;;
7406;SDS011;3745;56.964;24.128;2023-04-30T04:31:33;19.27;;;10.45;;
7406;SDS011;3745;56.964;24.128;2023-04-30T04:33:59;15.05;;;10.05;;
7406;SDS011;3745;56.964;24.128;2023-04-30T04:36:27;18.08;;;10.18;;
7406;SDS011;3745;56.964;24.128;2023-04-30T04:38:54;16.23;;;9.82;;
7406;SDS011;3745;56.964;24.128;2023-04-30T04:41:27;12.98;;;8.75;;
7406;SDS011;3745;56.964;24.128;2023-04-30T04:43:53;15.27;;;9.02;;
7406;SDS011;3745;56.964;24.128;2023-04-30T04:46:20;14.05;;;9.10;;
7406;SDS011;3745;56.964;24.128;2023-04-30T04:48:46;17.45;;;9.25;;
7406;SDS011;3745;56.964;24.128;2023-04-30T04:51:12;13.00;;;8.77;;
7406;SDS011;3745;56.964;24.128;2023-04-30T04:53:37;12.40;;;8.13;;
7406;SDS011;3745;56.964;24.128;2023-04-30T04:56:03;15.75;;;8.98;;
7406;SDS011;3745;56.964;24.128;2023-04-30T04:58:29;12.02;;;8.30;;
7406;SDS011;3745;56.964;24.128;2023-04-30T05:00:55;12.02;;;8.30;;
7406;SDS011;3745;56.964;24.128;2023-04-30T05:03:21;10.90;;;7.50;;
7406;SDS011;3745;56.964;24.128;2023-04-30T05:05:47;10.55;;;7.18;;
7406;SDS011;3745;56.964;24.128;2023-04-30T05:08:13;9.88;;;7.53;;
7406;SDS011;3745;56.964;24.128;2023-04-30T05:10:38;10.70;;;6.82;;
7406;SDS011;3745;56.964;24.128;2023-04-30T05:13:04;8.02;;;6.20;;
7406;SDS011;3745;56.964;24.128;2023-04-30T05:15:29;8.48;;;5.45;;
7406;SDS011;3745;56.964;24.128;2023-04-30T05:17:55;6.30;;;5.65;;
7406;SDS011;3745;56.964;24.128;2023-04-30T05:20:21;7.05;;;5.20;;
7406;SDS011;3745;56.964;24.128;2023-04-30T05:22:46;6.53;;;4.80;;
7406;SDS011;3745;56.964;24.128;2023-04-30T05:25:12;5.60;;;4.38;;
7406;SDS011;3745;56.964;24.128;2023-04-30T05:27:37;4.63;;;3.28;;
7406;SDS011;3745;56.964;24.128;2023-04-30T05:30:03;4.20;;;2.85;;
7406;SDS011;3745;56.964;24.128;2023-04-30T05:32:29;3.55;;;3.25;;
7406;SDS011;3745;56.964;24.128;2023-04-30T05:34:55;3.35;;;3.05;;
7406;SDS011;3745;56.964;24.128;2023-04-30T05:37:20;2.58;;;2.38;;
7406;SDS011;3745;56.964;24.128;2023-04-30T05:39:47;3.00;;;2.80;;
7406;SDS011;3745;56.964;24.128;2023-04-30T05:42:13;3.92;;;2.63;;
7406;SDS011;3745;56.964;24.128;2023-04-30T05:44:39;4.05;;;2.92;;
7406;SDS011;3745;56.964;24.128;2023-04-30T05:47:05;2.75;;;2.30;;
7406;SDS011;3745;56.964;24.128;2023-04-30T05:49:30;3.08;;;2.30;;
7406;SDS011;3745;56.964;24.128;2023-04-30T05:51:56;2.55;;;2.40;;
7406;SDS011;3745;56.964;24.128;2023-04-30T05:54:22;2.67;;;2.47;;
7406;SDS011;3745;56.964;24.128;2023-04-30T05:56:47;2.35;;;2.25;;
7406;SDS011;3745;56.964;24.128;2023-04-30T05:59:13;2.30;;;2.10;;
7406;SDS011;3745;56.964;24.128;2023-04-30T06:01:38;2.00;;;1.90;;
7406;SDS011;3745;56.964;24.128;2023-04-30T06:04:04;2.20;;;1.98;;
7406;SDS011;3745;56.964;24.128;2023-04-30T06:06:30;2.47;;;1.77;;
7406;SDS011;3745;56.964;24.128;2023-04-30T06:08:58;1.98;;;1.88;;
7406;SDS011;3745;56.964;24.128;2023-04-30T06:11:24;2.35;;;2.15;;
7406;SDS011;3745;56.964;24.128;2023-04-30T06:13:50;2.33;;;2.13;;
7406;SDS011;3745;56.964;24.128;2023-04-30T06:16:16;3.22;;;2.17;;
7406;SDS011;3745;56.964;24.128;2023-04-30T06:18:41;2.13;;;1.88;;
7406;SDS011;3745;56.964;24.128;2023-04-30T06:21:07;1.98;;;1.48;;
7406;SDS011;3745;56.964;24.128;2023-04-30T06:23:33;2.88;;;1.65;;
7406;SDS011;3745;56.964;24.128;2023-04-30T06:25:58;1.95;;;1.77;;
7406;SDS011;3745;56.964;24.128;2023-04-30T06:28:24;2.05;;;1.95;;
7406;SDS011;3745;56.964;24.128;2023-04-30T06:30:49;2.22;;;2.13;;
7406;SDS011;3745;56.964;24.128;2023-04-30T06:33:16;2.03;;;1.85;;
7406;SDS011;3745;56.964;24.128;2023-04-30T06:35:41;1.88;;;1.77;;
7406;SDS011;3745;56.964;24.128;2023-04-30T06:38:07;3.67;;;2.22;;
7406;SDS011;3745;56.964;24.128;2023-04-30T06:40:33;2.22;;;2.00;;
7406;SDS011;3745;56.964;24.128;2023-04-30T06:42:59;2.17;;;2.05;;
7406;SDS011;3745;56.964;24.128;2023-04-30T06:45:25;1.42;;;1.40;;
7406;SDS011;3745;56.964;24.128;2023-04-30T06:47:50;1.90;;;1.80;;
7406;SDS011;3745;56.964;24.128;2023-04-30T06:50:17;2.70;;;1.92;;
7406;SDS011;3745;56.964;24.128;2023-04-30T06:52:43;1.60;;;1.60;;
7406;SDS011;3745;56.964;24.128;2023-04-30T06:55:09;3.17;;;1.65;;
7406;SDS011;3745;56.964;24.128;2023-04-30T06:57:35;1.65;;;1.65;;
7406;SDS011;3745;56.964;24.128;2023-04-30T07:00:03;4.22;;;1.60;;
7406;SDS011;3745;56.964;24.128;2023-04-30T07:02:29;1.80;;;1.70;;
7406;SDS011;3745;56.964;24.128;2023-04-30T07:04:55;1.63;;;1.63;;
7406;SDS011;3745;56.964;24.128;2023-04-30T07:07:20;1.70;;;1.50;;
7406;SDS011;3745;56.964;24.128;2023-04-30T07:09:47;1.85;;;1.42;;
7406;SDS011;3745;56.964;24.128;2023-04-30T07:12:12;2.25;;;1.58;;
7406;SDS011;3745;56.964;24.128;2023-04-30T07:14:38;2.15;;;1.35;;
7406;SDS011;3745;56.964;24.128;2023-04-30T07:17:04;1.52;;;1.42;;
7406;SDS011;3745;56.964;24.128;2023-04-30T07:19:30;2.72;;;1.42;;
7406;SDS011;3745;56.964;24.128;2023-04-30T07:21:56;1.42;;;1.33;;
7406;SDS011;3745;56.964;24.128;2023-04-30T07:24:22;1.50;;;1.40;;
7406;SDS011;3745;56.964;24.128;2023-04-30T07:26:48;1.33;;;1.25;;
7406;SDS011;3745;56.964;24.128;2023-04-30T07:29:13;1.40;;;1.30;;
7406;SDS011;3745;56.964;24.128;2023-04-30T07:31:39;2.72;;;1.20;;
7406;SDS011;3745;56.964;24.128;2023-04-30T07:34:05;1.35;;;1.35;;
7406;SDS011;3745;56.964;24.128;2023-04-30T07:36:30;1.25;;;1.15;;
7406;SDS011;3745;56.964;24.128;2023-04-30T07:38:56;1.58;;;1.48;;
7406;SDS011;3745;56.964;24.128;2023-04-30T07:41:23;1.77;;;1.67;;
7406;SDS011;3745;56.964;24.128;2023-04-30T07:43:50;1.30;;;1.20;;
7406;SDS011;3745;56.964;24.128;2023-04-30T07:46:15;1.02;;;0.95;;
7406;SDS011;3745;56.964;24.128;2023-04-30T07:48:41;2.85;;;1.35;;
7406;SDS011;3745;56.964;24.128;2023-04-30T07:51:07;1.17;;;1.13;;
7406;SDS011;3745;56.964;24.128;2023-04-30T07:53:33;1.20;;;1.05;;
7406;SDS011;3745;56.964;24.128;2023-04-30T07:55:58;1.13;;;1.10;;
7406;SDS011;3745;56.964;24.128;2023-04-30T07:58:24;2.95;;;1.30;;
7406;SDS011;3745;56.964;24.128;2023-04-30T08:00:49;1.30;;;1.30;;
7406;SDS011;3745;56.964;24.128;2023-04-30T08:03:15;1.10;;;0.98;;
7406;SDS011;3745;56.964;24.128;2023-04-30T08:05:41;1.33;;;1.23;;
7406;SDS011;3745;56.964;24.128;2023-04-30T08:08:06;2.40;;;1.20;;
7406;SDS011;3745;56.964;24.128;2023-04-30T08:10:32;1.05;;;1.05;;
7406;SDS011;3745;56.964;24.128;2023-04-30T08:12:58;2.35;;;1.08;;
7406;SDS011;3745;56.964;24.128;2023-04-30T08:15:24;1.27;;;1.17;;
7406;SDS011;3745;56.964;24.128;2023-04-30T08:17:50;2.35;;;1.00;;
7406;SDS011;3745;56.964;24.128;2023-04-30T08:20:16;1.40;;;1.20;;
7406;SDS011;3745;56.964;24.128;2023-04-30T08:22:42;1.60;;;1.50;;
7406;SDS011;3745;56.964;24.128;2023-04-30T08:25:11;1.42;;;1.15;;
7406;SDS011;3745;56.964;24.128;2023-04-30T08:27:37;1.85;;;1.75;;
7406;SDS011;3745;56.964;24.128;2023-04-30T08:30:04;3.35;;;1.20;;
7406;SDS011;3745;56.964;24.128;2023-04-30T08:32:35;1.13;;;1.10;;
7406;SDS011;3745;56.964;24.128;2023-04-30T08:35:04;1.10;;;1.00;;
7406;SDS011;3745;56.964;24.128;2023-04-30T08:37:30;1.00;;;1.00;;
7406;SDS011;3745;56.964;24.128;2023-04-30T08:39:56;0.95;;;0.95;;
7406;SDS011;3745;56.964;24.128;2023-04-30T08:42:33;2.05;;;1.13;;
7406;SDS011;3745;56.964;24.128;2023-04-30T08:45:01;1.42;;;1.33;;
7406;SDS011;3745;56.964;24.128;2023-04-30T08:47:28;1.27;;;1.20;;
7406;SDS011;3745;56.964;24.128;2023-04-30T08:49:55;1.13;;;1.00;;
7406;SDS011;3745;56.964;24.128;2023-04-30T08:52:39;0.80;;;0.80;;
7406;SDS011;3745;56.964;24.128;2023-04-30T08:55:08;2.05;;;1.10;;
7406;SDS011;3745;56.964;24.128;2023-04-30T08:57:38;1.67;;;1.10;;
7406;SDS011;3745;56.964;24.128;2023-04-30T09:00:06;1.20;;;0.98;;
7406;SDS011;3745;56.964;24.128;2023-04-30T09:02:39;0.88;;;0.88;;
7406;SDS011;3745;56.964;24.128;2023-04-30T09:05:08;1.38;;;1.10;;
7406;SDS011;3745;56.964;24.128;2023-04-30T09:07:42;1.10;;;1.10;;
7406;SDS011;3745;56.964;24.128;2023-04-30T09:10:15;0.80;;;0.80;;
7406;SDS011;3745;56.964;24.128;2023-04-30T09:12:59;3.42;;;1.20;;
7406;SDS011;3745;56.964;24.128;2023-04-30T09:15:34;0.90;;;0.90;;
7406;SDS011;3745;56.964;24.128;2023-04-30T09:18:15;1.10;;;1.10;;
7406;SDS011;3745;56.964;24.128;2023-04-30T09:20:55;1.50;;;0.90;;
7406;SDS011;3745;56.964;24.128;2023-04-30T09:23:22;1.98;;;0.80;;
7406;SDS011;3745;56.964;24.128;2023-04-30T09:25:49;1.48;;;1.38;;
7406;SDS011;3745;56.964;24.128;2023-04-30T09:28:15;0.88;;;0.88;;
7406;SDS011;3745;56.964;24.128;2023-04-30T09:30:41;2.55;;;1.17;;
7406;SDS011;3745;56.964;24.128;2023-04-30T09:33:07;0.80;;;0.80;;
7406;SDS011;3745;56.964;24.128;2023-04-30T09:35:34;1.20;;;0.93;;
7406;SDS011;3745;56.964;24.128;2023-04-30T09:38:30;0.73;;;0.73;;
7406;SDS011;3745;56.964;24.128;2023-04-30T09:40:57;0.70;;;0.70;;
7406;SDS011;3745;56.964;24.128;2023-04-30T09:43:24;0.95;;;0.95;;
7406;SDS011;3745;56.964;24.128;2023-04-30T09:45:50;0.82;;;0.82;;
7406;SDS011;3745;56.964;24.128;2023-04-30T09:48:19;0.77;;;0.77;;
7406;SDS011;3745;56.964;24.128;2023-04-30T09:50:47;0.80;;;0.80;;
7406;SDS011;3745;56.964;24.128;2023-04-30T09:53:13;2.25;;;0.90;;
7406;SDS011;3745;56.964;24.128;2023-04-30T09:55:43;0.90;;;0.90;;
7406;SDS011;3745;56.964;24.128;2023-04-30T09:58:10;1.35;;;1.23;;
7406;SDS011;3745;56.964;24.128;2023-04-30T10:00:37;0.80;;;0.80;;
7406;SDS011;3745;56.964;24.128;2023-04-30T10:03:07;1.02;;;1.02;;
7406;SDS011;3745;56.964;24.128;2023-04-30T10:05:38;0.90;;;0.80;;
7406;SDS011;3745;56.964;24.128;2023-04-30T10:08:33;0.70;;;0.70;;
7406;SDS011;3745;56.964;24.128;2023-04-30T10:11:04;1.27;;;0.70;;
7406;SDS011;3745;56.964;24.128;2023-04-30T10:13:42;0.73;;;0.65;;
7406;SDS011;3745;56.964;24.128;2023-04-30T10:16:14;0.70;;;0.70;;
7406;SDS011;3745;56.964;24.128;2023-04-30T10:18:47;1.23;;;0.80;;
7406;SDS011;3745;56.964;24.128;2023-04-30T10:21:16;0.80;;;0.80;;
7406;SDS011;3745;56.964;24.128;2023-04-30T10:23:45;3.00;;;0.70;;
7406;SDS011;3745;56.964;24.128;2023-04-30T10:26:15;0.63;;;0.63;;
7406;SDS011;3745;56.964;24.128;2023-04-30T10:28:42;1.30;;;0.63;;
7406;SDS011;3745;56.964;24.128;2023-04-30T10:31:08;0.52;;;0.52;;
7406;SDS011;3745;56.964;24.128;2023-04-30T10:33:41;0.70;;;0.70;;
7406;SDS011;3745;56.964;24.128;2023-04-30T10:36:13;1.08;;;0.75;;
7406;SDS011;3745;56.964;24.128;2023-04-30T10:38:48;0.60;;;0.60;;
7406;SDS011;3745;56.964;24.128;2023-04-30T10:41:18;0.57;;;0.57;;
7406;SDS011;3745;56.964;24.128;2023-04-30T10:43:45;2.38;;;0.65;;
7406;SDS011;3745;56.964;24.128;2023-04-30T10:46:22;3.03;;;0.70;;
7406;SDS011;3745;56.964;24.128;2023-04-30T10:48:49;1.30;;;1.20;;
7406;SDS011;3745;56.964;24.128;2023-04-30T10:51:19;1.52;;;1.02;;
7406;SDS011;3745;56.964;24.128;2023-04-30T10:54:12;1.70;;;0.90;;
7406;SDS011;3745;56.964;24.128;2023-04-30T10:56:46;1.05;;;0.60;;
7406;SDS011;3745;56.964;24.128;2023-04-30T10:59:12;1.17;;;0.70;;
7406;SDS011;3745;56.964;24.128;2023-04-30T11:01:53;9.50;;;0.90;;
7406;SDS011;3745;56.964;24.128;2023-04-30T11:04:25;0.65;;;0.65;;
7406;SDS011;3745;56.964;24.128;2023-04-30T11:09:37;0.80;;;0.80;;
7406;SDS011;3745;56.964;24.128;2023-04-30T11:12:19;1.55;;;0.90;;
7406;SDS011;3745;56.964;24.128;2023-04-30T11:15:11;1.15;;;0.82;;
7406;SDS011;3745;56.964;24.128;2023-04-30T11:17:41;0.77;;;0.70;;
7406;SDS011;3745;56.964;24.128;2023-04-30T11:20:11;1.75;;;0.80;;
7406;SDS011;3745;56.964;24.128;2023-04-30T11:22:42;0.68;;;0.68;;
7406;SDS011;3745;56.964;24.128;2023-04-30T11:25:09;1.05;;;0.82;;
7406;SDS011;3745;56.964;24.128;2023-04-30T11:27:42;0.77;;;0.70;;
7406;SDS011;3745;56.964;24.128;2023-04-30T11:30:15;0.90;;;0.88;;
7406;SDS011;3745;56.964;24.128;2023-04-30T11:32:49;1.10;;;1.10;;
7406;SDS011;3745;56.964;24.128;2023-04-30T11:35:16;1.95;;;0.65;;
7406;SDS011;3745;56.964;24.128;2023-04-30T11:37:43;0.70;;;0.70;;
7406;SDS011;3745;56.964;24.128;2023-04-30T11:40:11;0.77;;;0.77;;
7406;SDS011;3745;56.964;24.128;2023-04-30T11:42:39;3.08;;;0.70;;
7406;SDS011;3745;56.964;24.128;2023-04-30T11:47:47;0.60;;;0.60;;
7406;SDS011;3745;56.964;24.128;2023-04-30T11:50:19;0.70;;;0.70;;
7406;SDS011;3745;56.964;24.128;2023-04-30T11:52:51;0.70;;;0.70;;
7406;SDS011;3745;56.964;24.128;2023-04-30T11:55:19;2.25;;;0.82;;
7406;SDS011;3745;56.964;24.128;2023-04-30T11:57:47;1.30;;;0.63;;
7406;SDS011;3745;56.964;24.128;2023-04-30T12:00:15;0.80;;;0.80;;
7406;SDS011;3745;56.964;24.128;2023-04-30T12:02:46;0.70;;;0.70;;
7406;SDS011;3745;56.964;24.128;2023-04-30T12:07:56;1.67;;;1.08;;
7406;SDS011;3745;56.964;24.128;2023-04-30T12:10:29;0.90;;;0.70;;
7406;SDS011;3745;56.964;24.128;2023-04-30T12:12:55;0.93;;;0.70;;
7406;SDS011;3745;56.964;24.128;2023-04-30T12:15:22;1.23;;;0.68;;
7406;SDS011;3745;56.964;24.128;2023-04-30T12:17:56;0.82;;;0.82;;
7406;SDS011;3745;56.964;24.128;2023-04-30T12:20:26;2.30;;;0.80;;
7406;SDS011;3745;56.964;24.128;2023-04-30T12:22:55;0.95;;;0.88;;
7406;SDS011;3745;56.964;24.128;2023-04-30T12:25:22;2.15;;;0.95;;
7406;SDS011;3745;56.964;24.128;2023-04-30T12:27:49;0.55;;;0.55;;
7406;SDS011;3745;56.964;24.128;2023-04-30T12:30:20;1.33;;;0.70;;
7406;SDS011;3745;56.964;24.128;2023-04-30T12:32:48;2.70;;;1.17;;
7406;SDS011;3745;56.964;24.128;2023-04-30T12:35:17;0.90;;;0.90;;
7406;SDS011;3745;56.964;24.128;2023-04-30T12:37:45;0.73;;;0.73;;
7406;SDS011;3745;56.964;24.128;2023-04-30T12:40:28;1.10;;;1.10;;
7406;SDS011;3745;56.964;24.128;2023-04-30T12:43:01;1.67;;;0.90;;
7406;SDS011;3745;56.964;24.128;2023-04-30T12:45:45;2.08;;;0.82;;
7406;SDS011;3745;56.964;24.128;2023-04-30T12:48:11;0.90;;;0.90;;
7406;SDS011;3745;56.964;24.128;2023-04-30T12:50:38;2.20;;;2.10;;
7406;SDS011;3745;56.964;24.128;2023-04-30T12:53:04;2.67;;;1.75;;
7406;SDS011;3745;56.964;24.128;2023-04-30T12:55:33;1.45;;;1.20;;
7406;SDS011;3745;56.964;24.128;2023-04-30T12:58:13;1.05;;;1.05;;
7406;SDS011;3745;56.964;24.128;2023-04-30T13:00:51;1.42;;;1.30;;
7406;SDS011;3745;56.964;24.128;2023-04-30T13:03:17;0.90;;;0.90;;
7406;SDS011;3745;56.964;24.128;2023-04-30T13:05:48;1.85;;;1.13;;
7406;SDS011;3745;56.964;24.128;2023-04-30T13:08:15;5.65;;;4.47;;
7406;SDS011;3745;56.964;24.128;2023-04-30T13:10:42;4.13;;;3.30;;
7406;SDS011;3745;56.964;24.128;2023-04-30T13:13:08;3.00;;;2.85;;
7406;SDS011;3745;56.964;24.128;2023-04-30T13:15:35;1.73;;;1.63;;
7406;SDS011;3745;56.964;24.128;2023-04-30T13:18:01;1.00;;;1.00;;
7406;SDS011;3745;56.964;24.128;2023-04-30T13:20:28;0.98;;;0.98;;
7406;SDS011;3745;56.964;24.128;2023-04-30T13:22:54;0.90;;;0.90;;
7406;SDS011;3745;56.964;24.128;2023-04-30T13:25:19;2.22;;;1.20;;
7406;SDS011;3745;56.964;24.128;2023-04-30T13:27:49;1.10;;;1.10;;
7406;SDS011;3745;56.964;24.128;2023-04-30T13:30:14;0.88;;;0.88;;
7406;SDS011;3745;56.964;24.128;2023-04-30T13:32:40;1.23;;;1.17;;
7406;SDS011;3745;56.964;24.128;2023-04-30T13:35:07;1.00;;;1.00;;
7406;SDS011;3745;56.964;24.128;2023-04-30T13:37:33;0.90;;;0.90;;
7406;SDS011;3745;56.964;24.128;2023-04-30T13:40:00;0.90;;;0.90;;
7406;SDS011;3745;56.964;24.128;2023-04-30T13:42:27;3.28;;;1.10;;
7406;SDS011;3745;56.964;24.128;2023-04-30T13:44:54;0.90;;;0.90;;
7406;SDS011;3745;56.964;24.128;2023-04-30T13:47:20;1.55;;;1.13;;
7406;SDS011;3745;56.964;24.128;2023-04-30T13:49:45;1.23;;;1.13;;
7406;SDS011;3745;56.964;24.128;2023-04-30T13:52:14;1.33;;;0.80;;
7406;SDS011;3745;56.964;24.128;2023-04-30T13:54:39;0.80;;;0.80;;
7406;SDS011;3745;56.964;24.128;2023-04-30T13:57:05;2.55;;;2.40;;
7406;SDS011;3745;56.964;24.128;2023-04-30T13:59:31;3.45;;;3.10;;
7406;SDS011;3745;56.964;24.128;2023-04-30T14:01:57;3.45;;;3.15;;
7406;SDS011;3745;56.964;24.128;2023-04-30T14:04:23;2.63;;;2.53;;
7406;SDS011;3745;56.964;24.128;2023-04-30T14:06:49;3.63;;;1.63;;
7406;SDS011;3745;56.964;24.128;2023-04-30T14:09:17;2.17;;;1.40;;
7406;SDS011;3745;56.964;24.128;2023-04-30T14:11:42;1.48;;;1.48;;
7406;SDS011;3745;56.964;24.128;2023-04-30T14:14:08;1.08;;;0.95;;
7406;SDS011;3745;56.964;24.128;2023-04-30T14:16:33;2.58;;;1.33;;
7406;SDS011;3745;56.964;24.128;2023-04-30T14:18:59;1.23;;;1.13;;
7406;SDS011;3745;56.964;24.128;2023-04-30T14:21:25;1.45;;;1.10;;
7406;SDS011;3745;56.964;24.128;2023-04-30T14:23:53;1.05;;;0.95;;
7406;SDS011;3745;56.964;24.128;2023-04-30T14:26:19;2.35;;;1.10;;
7406;SDS011;3745;56.964;24.128;2023-04-30T14:28:48;1.85;;;1.08;;
7406;SDS011;3745;56.964;24.128;2023-04-30T14:31:14;3.13;;;0.95;;
7406;SDS011;3745;56.964;24.128;2023-04-30T14:33:39;0.95;;;0.95;;
7406;SDS011;3745;56.964;24.128;2023-04-30T14:36:05;2.05;;;1.10;;
7406;SDS011;3745;56.964;24.128;2023-04-30T14:38:32;4.22;;;0.95;;
7406;SDS011;3745;56.964;24.128;2023-04-30T14:40:58;4.95;;;1.10;;
7406;SDS011;3745;56.964;24.128;2023-04-30T14:43:23;2.40;;;0.80;;
7406;SDS011;3745;56.964;24.128;2023-04-30T14:45:49;5.55;;;1.00;;
7406;SDS011;3745;56.964;24.128;2023-04-30T14:48:16;1.73;;;1.48;;
7406;SDS011;3745;56.964;24.128;2023-04-30T14:50:42;1.75;;;1.10;;
7406;SDS011;3745;56.964;24.128;2023-04-30T14:53:08;0.90;;;0.90;;
7406;SDS011;3745;56.964;24.128;2023-04-30T14:55:35;2.75;;;1.08;;
7406;SDS011;3745;56.964;24.128;2023-04-30T14:58:02;1.00;;;1.00;;
7406;SDS011;3745;56.964;24.128;2023-04-30T15:00:28;2.60;;;1.02;;
7406;SDS011;3745;56.964;24.128;2023-04-30T15:02:55;2.38;;;1.05;;
7406;SDS011;3745;56.964;24.128;2023-04-30T15:05:20;1.73;;;1.17;;
7406;SDS011;3745;56.964;24.128;2023-04-30T15:07:46;2.72;;;1.10;;
7406;SDS011;3745;56.964;24.128;2023-04-30T15:10:12;3.10;;;1.08;;
7406;SDS011;3745;56.964;24.128;2023-04-30T15:12:37;1.20;;;1.10;;
7406;SDS011;3745;56.964;24.128;2023-04-30T15:15:03;1.10;;;1.00;;
7406;SDS011;3745;56.964;24.128;2023-04-30T15:17:30;2.47;;;1.02;;